createdAt,value
2019-03-21T00:02:14.085Z,72.70
2019-03-21T00:04:44.490Z,72.20
2019-03-21T00:07:13.802Z,71.80
2019-03-21T00:09:46.214Z,71.50
2019-03-21T00:12:15.413Z,73.60
2019-03-21T00:14:50.743Z,73.90
2019-03-21T00:17:25.852Z,74.70
2019-03-21T00:19:55.093Z,71.90
2019-03-21T00:22:24.248Z,72.30
2019-03-21T00:24:53.412Z,71.50
2019-03-21T00:27:22.558Z,71.50
2019-03-21T00:29:51.727Z,74.70
2019-03-21T00:32:20.952Z,75.00
2019-03-21T00:34:50.136Z,75.30
2019-03-21T00:37:19.313Z,75.20
2019-03-21T00:39:48.476Z,75.20
2019-03-21T00:42:17.681Z,74.50
2019-03-21T00:44:46.891Z,75.20
2019-03-21T00:47:16.051Z,75.60
2019-03-21T00:49:45.220Z,75.60
2019-03-21T00:52:14.387Z,76.20
2019-03-21T00:54:43.585Z,75.80
2019-03-21T00:57:12.733Z,74.80
2019-03-21T00:59:41.962Z,73.80
2019-03-21T01:02:11.122Z,73.40
2019-03-21T01:04:40.396Z,73.50
2019-03-21T01:07:09.560Z,73.70
2019-03-21T01:09:38.735Z,74.10
2019-03-21T01:12:08.265Z,74.00
2019-03-21T01:14:37.493Z,74.20
2019-03-21T01:17:06.672Z,73.00
2019-03-21T01:19:38.322Z,72.60
2019-03-21T01:22:06.764Z,71.60
2019-03-21T01:24:37.626Z,71.80
2019-03-21T01:27:07.927Z,71.80
2019-03-21T01:29:37.241Z,71.50
2019-03-21T01:32:06.439Z,71.40
2019-03-21T01:34:35.597Z,71.90
2019-03-21T01:37:04.790Z,72.20
2019-03-21T01:39:34.032Z,72.70
2019-03-21T01:42:03.181Z,73.00
2019-03-21T01:44:40.530Z,73.20
2019-03-21T01:47:03.193Z,73.20
2019-03-21T01:49:32.353Z,74.10
2019-03-21T01:52:01.515Z,73.50
2019-03-21T01:54:30.764Z,73.40
2019-03-21T01:56:59.996Z,73.30
2019-03-21T01:59:29.214Z,73.30
2019-03-21T02:01:58.480Z,73.30
2019-03-21T02:04:27.664Z,73.40
2019-03-21T02:06:56.898Z,73.20
2019-03-21T02:09:26.080Z,73.40
2019-03-21T02:11:55.283Z,73.70
2019-03-21T02:14:24.528Z,74.00
2019-03-21T02:16:53.757Z,74.00
2019-03-21T02:19:22.920Z,73.80
2019-03-21T02:21:52.123Z,73.90
2019-03-21T02:24:21.402Z,73.80
2019-03-21T02:26:50.696Z,73.80
2019-03-21T02:29:19.919Z,74.10
2019-03-21T02:31:49.168Z,73.90
2019-03-21T02:34:18.389Z,73.60
2019-03-21T02:36:47.589Z,73.70
2019-03-21T02:39:16.779Z,73.20
2019-03-21T02:41:45.942Z,73.70
2019-03-21T02:44:15.138Z,73.80
2019-03-21T02:46:44.379Z,74.30
2019-03-21T02:49:13.591Z,75.10
2019-03-21T02:51:42.758Z,75.50
2019-03-21T02:54:11.935Z,75.10
2019-03-21T02:56:41.237Z,74.70
2019-03-21T02:59:10.415Z,74.90
2019-03-21T03:01:39.586Z,75.70
2019-03-21T03:04:08.770Z,76.00
2019-03-21T03:06:38.020Z,76.10
2019-03-21T03:09:07.638Z,75.90
2019-03-21T03:11:37.901Z,76.10
2019-03-21T03:14:07.164Z,75.90
2019-03-21T03:16:36.350Z,75.50
2019-03-21T03:19:05.513Z,75.60
2019-03-21T03:21:34.700Z,75.70
2019-03-21T03:24:04.331Z,75.70
2019-03-21T03:26:33.611Z,75.70
2019-03-21T03:29:02.829Z,75.40
2019-03-21T03:31:32.124Z,75.80
2019-03-21T03:34:01.378Z,75.40
2019-03-21T03:36:30.827Z,75.50
2019-03-21T03:39:00.096Z,75.50
2019-03-21T03:41:29.329Z,76.00
2019-03-21T03:43:58.491Z,76.50
2019-03-21T03:46:27.767Z,76.70
2019-03-21T03:48:57.012Z,77.00
2019-03-21T03:51:26.166Z,77.20
2019-03-21T03:53:55.444Z,77.10
2019-03-21T03:56:24.629Z,76.80
2019-03-21T03:59:02.746Z,76.70
2019-03-21T04:01:31.920Z,76.60
2019-03-21T04:04:01.088Z,77.80
2019-03-21T04:06:30.262Z,78.80
2019-03-21T04:08:59.502Z,78.50
2019-03-21T04:11:28.666Z,78.70
2019-03-21T04:13:57.862Z,78.00
2019-03-21T04:16:28.171Z,77.80
2019-03-21T04:18:57.331Z,77.60
2019-03-21T04:21:26.515Z,77.20
2019-03-21T04:23:55.752Z,77.00
2019-03-21T04:26:31.161Z,77.30
2019-03-21T04:29:00.393Z,77.40
2019-03-21T04:31:29.541Z,77.70
2019-03-21T04:34:02.348Z,77.70
2019-03-21T04:36:30.831Z,78.10
2019-03-21T04:38:59.921Z,78.80
2019-03-21T04:41:29.079Z,78.80
2019-03-21T04:43:58.271Z,78.90
2019-03-21T04:46:27.464Z,79.50
2019-03-21T04:48:56.640Z,78.80
2019-03-21T04:51:25.820Z,78.60
2019-03-21T04:53:55.038Z,78.70
2019-03-21T04:56:24.270Z,78.80
2019-03-21T04:58:53.410Z,78.60
2019-03-21T05:01:22.592Z,78.70
2019-03-21T05:03:51.733Z,78.80
2019-03-21T05:06:20.903Z,79.10
2019-03-21T05:08:50.054Z,78.10
2019-03-21T05:11:19.325Z,78.40
2019-03-21T05:13:48.559Z,78.80
2019-03-21T05:16:17.753Z,78.80
2019-03-21T05:18:58.332Z,78.40
2019-03-21T05:21:27.496Z,78.60
2019-03-21T05:23:56.658Z,79.00
2019-03-21T05:26:25.836Z,79.30
2019-03-21T05:28:54.994Z,79.50
2019-03-21T05:31:30.348Z,79.90
2019-03-21T05:33:59.568Z,80.00
2019-03-21T05:36:28.752Z,80.80
2019-03-21T05:38:57.926Z,80.10
2019-03-21T05:41:27.139Z,80.00
2019-03-21T05:43:59.569Z,79.70
2019-03-21T05:46:29.004Z,79.20
2019-03-21T05:48:58.188Z,78.90
2019-03-21T05:51:27.462Z,79.00
2019-03-21T05:53:56.704Z,78.00
2019-03-21T05:56:25.998Z,77.10
2019-03-21T05:58:55.303Z,77.40
2019-03-21T06:01:24.554Z,77.30
2019-03-21T06:03:53.839Z,78.00
2019-03-21T06:06:32.040Z,77.30
2019-03-21T06:09:01.300Z,76.90
2019-03-21T06:11:30.637Z,76.30
2019-03-21T06:13:59.830Z,76.00
2019-03-21T06:16:37.321Z,75.80
2019-03-21T06:19:12.319Z,75.30
2019-03-21T06:22:05.551Z,74.70
2019-03-21T06:24:37.993Z,74.20
2019-03-21T06:27:26.888Z,74.60
2019-03-21T06:29:56.488Z,74.10
2019-03-21T06:32:27.208Z,74.10
2019-03-21T06:34:57.189Z,73.10
2019-03-21T06:37:28.749Z,72.40
2019-03-21T06:39:57.648Z,72.20
2019-03-21T06:42:26.861Z,71.60
2019-03-21T06:44:56.035Z,71.40
2019-03-21T06:47:25.215Z,70.50
2019-03-21T06:49:54.475Z,69.80
2019-03-21T06:52:23.716Z,69.30
2019-03-21T06:54:52.946Z,68.70
2019-03-21T06:57:22.091Z,68.80
2019-03-21T06:59:51.287Z,68.60
2019-03-21T07:02:20.430Z,68.20
2019-03-21T07:04:49.665Z,70.50
2019-03-21T07:07:18.894Z,69.20
2019-03-21T07:09:48.109Z,67.70
2019-03-21T07:12:17.365Z,67.70
2019-03-21T07:14:46.675Z,69.40
2019-03-21T07:17:15.919Z,66.40
2019-03-21T07:19:45.111Z,66.50
2019-03-21T07:22:14.406Z,66.60
2019-03-21T07:24:43.631Z,66.70
2019-03-21T07:27:12.928Z,66.40
2019-03-21T07:29:42.263Z,64.40
2019-03-21T07:32:11.451Z,63.60
2019-03-21T07:34:40.729Z,62.20
2019-03-21T07:37:09.892Z,62.00
2019-03-21T07:39:39.188Z,62.30
2019-03-21T07:42:08.483Z,62.20
2019-03-21T07:44:37.742Z,61.50
2019-03-21T07:47:12.778Z,60.50
2019-03-21T07:49:37.842Z,60.50
2019-03-21T07:52:07.194Z,59.90
2019-03-21T07:54:36.361Z,59.60
2019-03-21T07:57:05.506Z,58.80
2019-03-21T07:59:34.673Z,58.90
2019-03-21T08:02:03.853Z,58.10
2019-03-21T08:04:33.053Z,57.90
2019-03-21T08:07:02.266Z,56.80
2019-03-21T08:09:31.581Z,56.20
2019-03-21T08:12:00.867Z,55.80
2019-03-21T08:14:30.090Z,54.30
2019-03-21T08:16:59.267Z,53.30
2019-03-21T08:19:28.430Z,53.40
2019-03-21T08:21:57.593Z,54.20
2019-03-21T08:24:26.788Z,53.10
2019-03-21T08:26:55.957Z,52.50
2019-03-21T08:29:25.157Z,52.30
2019-03-21T08:31:54.505Z,51.70
2019-03-21T08:34:24.073Z,50.90
2019-03-21T08:36:53.370Z,49.60
2019-03-21T08:39:22.636Z,44.10
2019-03-21T08:41:51.850Z,39.20
2019-03-21T08:44:21.117Z,35.80
2019-03-21T08:46:50.282Z,35.10
2019-03-21T08:49:19.564Z,34.00
2019-03-21T08:51:48.814Z,33.40
2019-03-21T08:54:17.968Z,33.10
2019-03-21T08:56:47.146Z,31.80
2019-03-21T08:59:16.308Z,30.00
2019-03-21T09:01:45.496Z,27.50
2019-03-21T09:04:14.671Z,28.10
2019-03-21T09:06:43.866Z,30.50
2019-03-21T09:09:13.037Z,30.00
2019-03-21T09:11:42.205Z,30.00
2019-03-21T09:14:11.375Z,30.20
2019-03-21T09:16:40.606Z,29.40
2019-03-21T09:19:09.764Z,27.00
2019-03-21T09:21:38.930Z,25.90
2019-03-21T09:24:08.113Z,25.90
2019-03-21T09:26:37.311Z,24.90
2019-03-21T09:29:06.462Z,24.00
2019-03-21T09:31:35.671Z,25.50
2019-03-21T09:34:04.927Z,26.90
2019-03-21T09:36:34.176Z,27.00
2019-03-21T09:39:03.887Z,26.10
2019-03-21T09:41:33.197Z,25.30
2019-03-21T09:44:02.434Z,23.80
2019-03-21T09:46:31.699Z,23.30
2019-03-21T09:49:01.239Z,22.10
2019-03-21T09:51:31.273Z,22.50
2019-03-21T09:54:09.319Z,22.60
2019-03-21T09:56:31.665Z,22.80
2019-03-21T09:59:01.189Z,24.00
2019-03-21T10:01:30.520Z,24.70
2019-03-21T10:03:59.771Z,23.40
2019-03-21T10:06:29.049Z,23.60
2019-03-21T10:08:58.313Z,23.70
2019-03-21T10:11:27.559Z,23.80
2019-03-21T10:13:56.695Z,23.40
2019-03-21T10:16:25.871Z,23.40
2019-03-21T10:18:55.024Z,24.00
2019-03-21T10:21:24.202Z,24.10
2019-03-21T10:23:53.555Z,23.10
2019-03-21T10:26:22.741Z,22.90
2019-03-21T10:28:52.075Z,21.90
2019-03-21T10:31:21.308Z,20.80
2019-03-21T10:33:50.535Z,20.10
2019-03-21T10:36:19.699Z,20.20
2019-03-21T10:38:48.930Z,19.70
2019-03-21T10:41:18.143Z,19.40
2019-03-21T10:43:47.447Z,19.20
2019-03-21T10:46:16.664Z,20.50
2019-03-21T10:48:45.827Z,19.80
2019-03-21T10:51:14.997Z,19.40
2019-03-21T10:53:44.263Z,19.20
2019-03-21T10:56:13.606Z,20.00
2019-03-21T10:58:42.911Z,20.80
2019-03-21T11:01:12.148Z,19.60
2019-03-21T11:03:41.430Z,18.30
2019-03-21T11:06:10.701Z,18.00
2019-03-21T11:08:39.890Z,16.80
2019-03-21T11:11:09.201Z,16.60
2019-03-21T11:13:38.492Z,16.60
2019-03-21T11:16:07.730Z,16.60
2019-03-21T11:18:36.890Z,16.50
2019-03-21T11:21:06.052Z,17.70
2019-03-21T11:23:35.284Z,17.30
2019-03-21T11:26:04.448Z,16.90
2019-03-21T11:28:33.618Z,16.80
2019-03-21T11:31:02.778Z,17.60
2019-03-21T11:33:31.957Z,17.80
2019-03-21T11:36:01.108Z,18.70
2019-03-21T11:38:30.271Z,19.30
2019-03-21T11:40:59.453Z,18.30
2019-03-21T11:43:28.694Z,17.80
2019-03-21T11:45:57.898Z,17.20
2019-03-21T11:48:27.124Z,17.80
2019-03-21T11:50:56.485Z,17.10
2019-03-21T11:53:25.707Z,17.00
2019-03-21T11:55:54.906Z,17.70
2019-03-21T11:58:24.159Z,17.40
2019-03-21T12:00:53.418Z,17.60
2019-03-21T12:03:24.363Z,17.20
2019-03-21T12:05:53.793Z,16.70
2019-03-21T12:08:23.338Z,16.80
2019-03-21T12:10:52.609Z,17.40
2019-03-21T12:13:21.958Z,17.50
2019-03-21T12:15:51.223Z,17.60
2019-03-21T12:18:20.458Z,18.20
2019-03-21T12:20:49.862Z,17.30
2019-03-21T12:23:19.096Z,16.30
2019-03-21T12:25:48.327Z,16.10
2019-03-21T12:28:17.477Z,17.10
2019-03-21T12:30:46.677Z,16.80
2019-03-21T12:33:15.878Z,17.10
2019-03-21T12:35:45.073Z,17.50
2019-03-21T12:38:14.229Z,18.50
2019-03-21T12:40:43.455Z,18.90
2019-03-21T12:43:12.686Z,18.20
2019-03-21T12:45:41.917Z,17.40
2019-03-21T12:48:11.075Z,18.20
2019-03-21T12:50:40.459Z,18.00
2019-03-21T12:53:09.734Z,17.70
2019-03-21T12:55:38.942Z,17.30
2019-03-21T12:58:08.190Z,16.90
2019-03-21T13:00:39.566Z,17.00
2019-03-21T13:03:09.851Z,18.00
2019-03-21T13:05:40.111Z,19.20
2019-03-21T13:08:09.356Z,18.50
2019-03-21T13:10:38.561Z,18.70
2019-03-21T13:13:07.836Z,19.20
2019-03-21T13:15:37.036Z,18.10
2019-03-21T13:18:06.473Z,18.10
2019-03-21T13:20:35.803Z,17.80
2019-03-21T13:23:05.075Z,17.40
2019-03-21T13:25:34.567Z,16.90
2019-03-21T13:28:04.005Z,17.10
2019-03-21T13:30:33.169Z,17.10
2019-03-21T13:33:02.328Z,16.80
2019-03-21T13:35:32.909Z,16.40
2019-03-21T13:38:03.453Z,16.50
2019-03-21T13:40:32.794Z,16.30
2019-03-21T13:43:02.131Z,16.70
2019-03-21T13:45:31.572Z,17.60
2019-03-21T13:48:00.948Z,17.80
2019-03-21T13:50:30.270Z,17.60
2019-03-21T13:53:04.824Z,17.10
2019-03-21T13:55:30.917Z,17.20
2019-03-21T13:58:00.186Z,17.60
2019-03-21T14:00:29.944Z,17.80
2019-03-21T14:02:59.247Z,17.40
2019-03-21T14:05:28.572Z,17.80
2019-03-21T14:07:57.898Z,18.60
2019-03-21T14:10:27.421Z,19.30
2019-03-21T14:12:56.637Z,18.70
2019-03-21T14:15:25.975Z,18.00
2019-03-21T14:17:55.319Z,17.40
2019-03-21T14:20:24.684Z,17.30
2019-03-21T14:22:53.894Z,17.40
2019-03-21T14:25:23.147Z,17.30
2019-03-21T14:27:52.388Z,17.50
2019-03-21T14:30:21.814Z,19.00
2019-03-21T14:32:51.078Z,20.30
2019-03-21T14:35:21.459Z,21.40
2019-03-21T14:37:50.955Z,20.90
2019-03-21T14:40:20.348Z,20.50
2019-03-21T14:42:49.804Z,20.60
2019-03-21T14:45:19.615Z,21.50
2019-03-21T14:47:48.959Z,21.20
2019-03-21T14:50:18.404Z,19.80
2019-03-21T14:52:47.899Z,19.60
2019-03-21T14:55:17.326Z,20.90
2019-03-21T14:57:46.580Z,23.10
2019-03-21T15:00:17.591Z,24.60
2019-03-21T15:02:46.855Z,25.60
2019-03-21T15:05:16.182Z,26.60
2019-03-21T15:07:45.465Z,27.50
2019-03-21T15:10:17.075Z,28.40
2019-03-21T15:12:46.566Z,28.90
2019-03-21T15:15:16.051Z,29.70
2019-03-21T15:17:45.410Z,29.50
2019-03-21T15:20:18.071Z,29.00
2019-03-21T15:22:47.366Z,29.50
2019-03-21T15:25:16.733Z,29.10
2019-03-21T15:27:45.988Z,28.90
2019-03-21T15:30:21.579Z,29.50
2019-03-21T15:32:51.001Z,29.90
2019-03-21T15:35:20.266Z,29.70
2019-03-21T15:37:49.720Z,29.80
2019-03-21T15:40:19.064Z,30.60
2019-03-21T15:42:48.327Z,30.50
2019-03-21T15:45:22.276Z,29.70
2019-03-21T15:47:49.685Z,29.60
2019-03-21T15:50:37.077Z,29.60
2019-03-21T15:53:05.607Z,30.10
2019-03-21T15:55:34.938Z,30.50
2019-03-21T15:58:04.321Z,31.20
2019-03-21T16:00:35.985Z,30.90
2019-03-21T16:03:07.155Z,30.80
2019-03-21T16:05:37.027Z,30.00
2019-03-21T16:08:08.705Z,31.00
2019-03-21T16:10:37.144Z,30.50
2019-03-21T16:13:07.677Z,30.40
2019-03-21T16:15:36.836Z,29.80
2019-03-21T16:18:06.154Z,30.00
2019-03-21T16:20:35.590Z,30.00
2019-03-21T16:23:04.914Z,29.90
2019-03-21T16:25:34.124Z,30.00
2019-03-21T16:28:03.404Z,30.50
2019-03-21T16:30:38.848Z,30.10
2019-03-21T16:33:08.240Z,31.00
2019-03-21T16:35:37.426Z,30.60
2019-03-21T16:38:06.664Z,30.70
2019-03-21T16:40:35.980Z,31.40
2019-03-21T16:43:05.906Z,32.00
2019-03-21T16:45:35.360Z,32.30
2019-03-21T16:48:05.276Z,32.70
2019-03-21T16:50:34.525Z,32.80
2019-03-21T16:53:03.860Z,32.50
2019-03-21T16:55:33.016Z,33.00
2019-03-21T16:58:02.214Z,32.00
2019-03-21T17:00:31.406Z,32.40
2019-03-21T17:03:00.706Z,32.30
2019-03-21T17:05:29.910Z,32.20
2019-03-21T17:08:10.359Z,32.60
2019-03-21T17:10:30.748Z,33.20
2019-03-21T17:13:04.352Z,34.30
2019-03-21T17:15:30.980Z,34.90
2019-03-21T17:18:00.184Z,35.70
2019-03-21T17:20:29.460Z,36.40
2019-03-21T17:22:58.738Z,36.90
2019-03-21T17:25:27.974Z,37.30
2019-03-21T17:27:57.122Z,37.80
2019-03-21T17:30:26.405Z,38.00
2019-03-21T17:32:55.568Z,38.00
2019-03-21T17:35:24.877Z,38.60
2019-03-21T17:37:54.089Z,39.00
2019-03-21T17:40:23.324Z,39.10
2019-03-21T17:42:52.616Z,39.60
2019-03-21T17:45:21.882Z,39.70
2019-03-21T17:47:51.198Z,40.00
2019-03-21T17:50:20.474Z,40.50
2019-03-21T17:52:50.782Z,40.30
2019-03-21T17:55:20.056Z,40.50
2019-03-21T17:57:49.317Z,40.70
2019-03-21T18:00:22.098Z,40.90
2019-03-21T18:02:51.543Z,41.00
2019-03-21T18:05:20.859Z,41.20
2019-03-21T18:07:50.198Z,41.30
2019-03-21T18:10:30.626Z,41.60
2019-03-21T18:13:00.778Z,41.60
2019-03-21T18:15:30.355Z,42.00
2019-03-21T18:18:00.553Z,42.30
2019-03-21T18:20:29.711Z,42.50
2019-03-21T18:22:58.898Z,43.20
2019-03-21T18:25:28.079Z,42.90
2019-03-21T18:27:57.478Z,43.00
2019-03-21T18:30:26.829Z,43.10
2019-03-21T18:32:56.245Z,42.90
2019-03-21T18:35:25.664Z,43.00
2019-03-21T18:37:56.009Z,43.20
2019-03-21T18:40:25.324Z,43.60
2019-03-21T18:42:54.592Z,43.20
2019-03-21T18:45:23.744Z,43.50
2019-03-21T18:47:52.917Z,43.70
2019-03-21T18:50:22.081Z,43.50
2019-03-21T18:52:51.277Z,43.50
2019-03-21T18:55:20.444Z,43.40
2019-03-21T18:57:49.621Z,43.60
2019-03-21T19:00:20.698Z,43.80
2019-03-21T19:02:49.914Z,43.90
2019-03-21T19:05:19.145Z,44.40
2019-03-21T19:07:48.311Z,44.30
2019-03-21T19:10:17.469Z,44.10
2019-03-21T19:12:46.709Z,44.50
2019-03-21T19:15:16.853Z,44.80
2019-03-21T19:17:46.049Z,45.00
2019-03-21T19:20:19.420Z,45.80
2019-03-21T19:22:48.600Z,45.70
2019-03-21T19:25:19.482Z,45.80
2019-03-21T19:27:49.134Z,46.70
2019-03-21T19:30:19.718Z,45.60
2019-03-21T19:32:48.964Z,46.20
2019-03-21T19:35:18.210Z,46.50
2019-03-21T19:37:48.510Z,47.90
2019-03-21T19:40:19.594Z,48.50
2019-03-21T19:42:48.898Z,48.40
2019-03-21T19:45:18.822Z,48.00
2019-03-21T19:47:48.046Z,47.90
2019-03-21T19:50:18.322Z,48.60
2019-03-21T19:52:47.518Z,47.00
2019-03-21T19:55:16.766Z,47.30
2019-03-21T19:57:46.000Z,46.70
2019-03-21T20:00:22.818Z,47.30
2019-03-21T20:02:52.056Z,47.80
2019-03-21T20:05:21.298Z,48.60
2019-03-21T20:07:50.471Z,49.00
2019-03-21T20:10:21.080Z,49.10
2019-03-21T20:12:50.223Z,48.50
2019-03-21T20:15:19.563Z,49.40
2019-03-21T20:17:48.802Z,49.00
2019-03-21T20:20:20.895Z,49.30
2019-03-21T20:22:50.306Z,49.20
2019-03-21T20:25:19.634Z,48.70
2019-03-21T20:27:49.005Z,49.30
2019-03-21T20:30:20.412Z,49.80
2019-03-21T20:32:49.632Z,51.20
2019-03-21T20:35:18.817Z,50.30
2019-03-21T20:37:48.252Z,50.40
2019-03-21T20:40:20.830Z,51.50
2019-03-21T20:42:50.092Z,51.40
2019-03-21T20:45:19.867Z,52.70
2019-03-21T20:47:49.134Z,52.40
2019-03-21T20:50:18.451Z,52.20
2019-03-21T20:52:47.714Z,52.70
2019-03-21T20:55:16.887Z,53.10
2019-03-21T20:57:46.257Z,52.10
2019-03-21T21:00:18.029Z,52.80
2019-03-21T21:02:47.333Z,53.80
2019-03-21T21:05:16.710Z,54.00
2019-03-21T21:07:46.310Z,55.00
2019-03-21T21:10:17.171Z,55.10
2019-03-21T21:12:46.479Z,56.90
2019-03-21T21:15:16.579Z,56.20
2019-03-21T21:17:45.969Z,56.50
2019-03-21T21:20:18.344Z,56.30
2019-03-21T21:22:47.615Z,55.90
2019-03-21T21:25:16.839Z,55.40
2019-03-21T21:27:49.683Z,56.40
2019-03-21T21:30:20.059Z,57.20
2019-03-21T21:32:49.186Z,57.40
2019-03-21T21:35:18.405Z,58.30
2019-03-21T21:37:47.647Z,58.40
2019-03-21T21:40:17.424Z,58.40
2019-03-21T21:42:46.887Z,58.40
2019-03-21T21:45:16.885Z,58.60
2019-03-21T21:47:46.187Z,59.70
2019-03-21T21:50:16.383Z,59.70
2019-03-21T21:52:45.532Z,59.60
2019-03-21T21:55:14.706Z,59.80
2019-03-21T21:57:43.888Z,61.10
2019-03-21T22:00:18.333Z,61.30
2019-03-21T22:02:47.528Z,64.10
2019-03-21T22:05:17.173Z,63.90
2019-03-21T22:07:46.437Z,63.90
2019-03-21T22:10:15.684Z,63.90
2019-03-21T22:12:44.843Z,64.10
2019-03-21T22:15:16.955Z,64.80
2019-03-21T22:17:46.154Z,65.10
2019-03-21T22:20:15.938Z,63.60
2019-03-21T22:22:45.268Z,65.00
2019-03-21T22:25:14.420Z,64.70
2019-03-21T22:27:43.658Z,66.50
2019-03-21T22:30:19.585Z,67.60
2019-03-21T22:32:48.925Z,68.80
2019-03-21T22:35:18.402Z,68.20
2019-03-21T22:37:47.630Z,67.40
2019-03-21T22:40:17.729Z,67.00
2019-03-21T22:42:47.951Z,66.70
2019-03-21T22:45:17.533Z,67.00
2019-03-21T22:47:46.706Z,67.40
2019-03-21T22:50:16.722Z,67.60
2019-03-21T22:52:45.959Z,67.90
2019-03-21T22:55:15.110Z,67.70
2019-03-21T22:57:44.305Z,67.40
2019-03-21T23:00:18.387Z,66.60
2019-03-21T23:02:49.184Z,66.60
2019-03-21T23:05:18.340Z,67.10
2019-03-21T23:07:47.489Z,67.80
2019-03-21T23:10:16.660Z,67.20
2019-03-21T23:12:45.814Z,68.30
2019-03-21T23:15:14.978Z,68.00
2019-03-21T23:17:44.148Z,67.90
2019-03-21T23:20:15.207Z,67.50
2019-03-21T23:22:44.455Z,67.00
2019-03-21T23:25:16.270Z,67.90
2019-03-21T23:27:45.054Z,67.80
2019-03-21T23:30:18.428Z,67.20
2019-03-21T23:32:47.725Z,67.20
2019-03-21T23:35:16.997Z,67.40
2019-03-21T23:37:46.235Z,67.60
2019-03-21T23:40:16.042Z,68.50
2019-03-21T23:42:45.262Z,70.40
2019-03-21T23:45:14.465Z,70.60
2019-03-21T23:47:43.765Z,72.60
2019-03-21T23:50:15.936Z,73.20
2019-03-21T23:52:45.116Z,73.30
2019-03-21T23:55:14.310Z,73.00
2019-03-21T23:57:43.484Z,72.20
